createdAt,value
2022-10-29T00:01:54.673Z,7.20
2022-10-29T00:06:59.175Z,7.35
2022-10-29T00:12:02.083Z,7.63
2022-10-29T00:17:04.912Z,7.45
2022-10-29T00:22:09.133Z,6.80
2022-10-29T00:27:12.091Z,6.55
2022-10-29T00:32:14.991Z,7.28
2022-10-29T00:37:19.201Z,7.72
2022-10-29T00:42:22.331Z,7.40
2022-10-29T00:47:29.008Z,8.13
2022-10-29T00:52:35.382Z,8.07
2022-10-29T00:57:41.052Z,7.85
2022-10-29T01:02:45.897Z,6.95
2022-10-29T01:07:50.287Z,6.82
2022-10-29T01:13:19.823Z,6.18
2022-10-29T01:18:29.217Z,7.07
2022-10-29T01:24:02.687Z,7.32
2022-10-29T01:29:20.750Z,7.68
2022-10-29T01:34:29.938Z,7.30
2022-10-29T01:39:38.899Z,7.30
2022-10-29T01:44:46.755Z,6.93
2022-10-29T01:49:55.217Z,7.88
2022-10-29T01:54:59.225Z,8.77
2022-10-29T02:00:05.836Z,7.32
2022-10-29T02:05:27.523Z,7.93
2022-10-29T02:10:38.021Z,8.60
2022-10-29T02:15:44.740Z,8.50
2022-10-29T02:20:49.231Z,8.73
2022-10-29T02:25:52.129Z,7.93
2022-10-29T02:30:54.997Z,7.85
2022-10-29T02:35:59.321Z,8.18
2022-10-29T02:41:02.370Z,8.35
2022-10-29T02:46:15.633Z,8.60
2022-10-29T02:51:19.840Z,10.05
2022-10-29T02:56:22.665Z,10.25
2022-10-29T03:01:26.087Z,9.82
2022-10-29T03:06:30.632Z,9.90
2022-10-29T03:11:33.730Z,10.52
2022-10-29T03:16:36.546Z,11.07
2022-10-29T03:21:40.801Z,10.70
2022-10-29T03:26:43.625Z,11.60
2022-10-29T03:31:46.507Z,10.57
2022-10-29T03:36:51.454Z,10.80
2022-10-29T03:41:54.458Z,10.50
2022-10-29T03:46:57.222Z,10.35
2022-10-29T03:52:01.397Z,10.02
2022-10-29T03:57:05.431Z,9.88
2022-10-29T04:02:09.387Z,9.60
2022-10-29T04:07:14.447Z,10.02
2022-10-29T04:12:17.280Z,10.55
2022-10-29T04:17:20.070Z,10.07
2022-10-29T04:28:41.946Z,11.35
2022-10-29T04:33:09.916Z,11.10
2022-10-29T04:38:14.658Z,10.98
2022-10-29T04:43:17.886Z,10.23
2022-10-29T04:48:21.442Z,10.65
2022-10-29T04:53:25.731Z,10.60
2022-10-29T04:58:30.657Z,11.70
2022-10-29T05:03:35.180Z,11.85
2022-10-29T05:08:39.450Z,12.27
2022-10-29T05:13:42.352Z,11.98
2022-10-29T05:18:45.496Z,11.85
2022-10-29T05:24:29.568Z,12.00
2022-10-29T05:29:32.393Z,12.25
2022-10-29T05:34:35.332Z,13.02
2022-10-29T05:39:39.776Z,11.43
2022-10-29T05:44:43.670Z,11.30
2022-10-29T05:49:46.600Z,10.68
2022-10-29T05:54:51.031Z,9.77
2022-10-29T05:59:53.815Z,10.45
2022-10-29T06:04:56.814Z,10.10
2022-10-29T06:10:01.397Z,9.45
2022-10-29T06:15:04.939Z,9.75
2022-10-29T06:20:09.436Z,9.90
2022-10-29T06:25:13.759Z,11.63
2022-10-29T06:30:16.829Z,11.82
2022-10-29T06:35:19.694Z,11.90
2022-10-29T06:40:24.044Z,11.65
2022-10-29T06:45:26.913Z,11.75
2022-10-29T06:50:30.370Z,12.27
2022-10-29T06:55:38.636Z,11.75
2022-10-29T07:05:46.192Z,11.23
2022-10-29T07:10:51.945Z,12.77
2022-10-29T07:15:54.731Z,12.35
2022-10-29T07:20:58.600Z,12.63
2022-10-29T07:26:03.012Z,13.02
2022-10-29T07:31:07.800Z,12.90
2022-10-29T07:36:10.762Z,14.88
2022-10-29T07:41:15.282Z,13.13
2022-10-29T07:46:18.134Z,13.68
2022-10-29T07:51:20.969Z,13.43
2022-10-29T07:56:25.098Z,13.43
2022-10-29T08:01:27.944Z,12.93
2022-10-29T08:06:30.907Z,14.00
2022-10-29T08:11:35.346Z,13.18
2022-10-29T08:16:38.231Z,14.32
2022-10-29T08:21:41.277Z,15.65
2022-10-29T08:26:45.824Z,13.85
2022-10-29T08:31:48.676Z,14.15
2022-10-29T08:36:51.454Z,14.15
2022-10-29T08:42:10.363Z,17.02
2022-10-29T08:47:19.011Z,14.65
2022-10-29T08:52:27.727Z,14.38
2022-10-29T08:57:34.921Z,14.40
2022-10-29T09:02:40.255Z,15.93
2022-10-29T09:08:06.948Z,14.93
2022-10-29T09:13:27.960Z,15.93
2022-10-29T09:18:48.577Z,14.65
2022-10-29T09:24:03.082Z,13.90
2022-10-29T09:29:25.878Z,15.07
2022-10-29T09:34:32.853Z,15.48
2022-10-29T09:39:40.757Z,17.00
2022-10-29T09:44:54.065Z,15.18
2022-10-29T09:50:08.794Z,14.75
2022-10-29T09:55:20.860Z,26.85
2022-10-29T10:00:27.401Z,15.18
2022-10-29T10:05:32.329Z,14.00
2022-10-29T10:10:37.200Z,13.75
2022-10-29T10:15:51.266Z,14.10
2022-10-29T10:21:04.051Z,12.98
2022-10-29T10:26:07.439Z,12.93
2022-10-29T10:31:16.111Z,12.75
2022-10-29T10:36:21.676Z,13.43
2022-10-29T10:41:28.615Z,14.07
2022-10-29T10:46:35.709Z,13.48
2022-10-29T10:51:40.744Z,12.10
2022-10-29T10:56:53.629Z,11.68
2022-10-29T11:02:01.013Z,12.27
2022-10-29T11:07:08.248Z,12.98
2022-10-29T11:12:15.882Z,12.73
2022-10-29T11:17:28.229Z,12.25
2022-10-29T11:22:35.531Z,12.18
2022-10-29T11:27:46.633Z,10.63
2022-10-29T11:33:03.739Z,10.98
2022-10-29T11:38:14.338Z,11.30
2022-10-29T11:43:21.149Z,11.45
2022-10-29T11:48:38.010Z,10.75
2022-10-29T11:53:56.762Z,10.23
2022-10-29T11:59:05.853Z,10.02
2022-10-29T12:04:25.403Z,9.85
2022-10-29T12:10:01.300Z,8.68
2022-10-29T12:15:13.770Z,9.15
2022-10-29T12:20:27.780Z,8.75
2022-10-29T12:25:40.421Z,9.48
2022-10-29T12:30:54.366Z,8.40
2022-10-29T12:36:04.775Z,8.68
2022-10-29T12:41:14.704Z,8.10
2022-10-29T12:46:27.437Z,7.03
2022-10-29T12:51:41.269Z,6.32
2022-10-29T12:56:47.860Z,7.63
2022-10-29T13:07:26.693Z,6.97
2022-10-29T13:13:01.214Z,7.40
2022-10-29T13:18:09.153Z,6.85
2022-10-29T13:23:35.928Z,6.10
2022-10-29T13:28:51.185Z,6.32
2022-10-29T13:33:54.353Z,6.88
2022-10-29T13:39:07.505Z,7.40
2022-10-29T13:44:13.232Z,7.75
2022-10-29T13:49:23.006Z,6.55
2022-10-29T13:54:38.411Z,7.82
2022-10-29T13:59:44.244Z,7.93
2022-10-29T14:04:50.599Z,7.38
2022-10-29T14:09:57.912Z,6.65
2022-10-29T14:15:12.480Z,8.47
2022-10-29T14:20:23.133Z,7.00
2022-10-29T14:25:37.739Z,8.90
2022-10-29T14:30:40.577Z,7.15
2022-10-29T14:35:44.090Z,6.78
2022-10-29T14:40:48.762Z,6.95
2022-10-29T14:45:52.849Z,7.10
2022-10-29T14:50:56.653Z,7.65
2022-10-29T14:56:05.376Z,8.70
2022-10-29T15:01:15.596Z,7.93
2022-10-29T15:06:20.740Z,8.15
2022-10-29T15:11:37.328Z,9.05
2022-10-29T15:16:42.438Z,9.18
2022-10-29T15:21:46.189Z,8.02
2022-10-29T15:26:53.046Z,8.55
2022-10-29T15:31:58.464Z,9.88
2022-10-29T15:37:16.585Z,9.18
2022-10-29T15:42:23.505Z,8.02
2022-10-29T15:47:29.096Z,9.23
2022-10-29T15:52:33.887Z,10.02
2022-10-29T15:57:38.282Z,8.70
2022-10-29T16:02:41.393Z,9.82
2022-10-29T16:07:45.513Z,12.75
2022-10-29T16:12:50.829Z,11.23
2022-10-29T16:17:54.297Z,12.45
2022-10-29T16:22:57.436Z,12.95
2022-10-29T16:28:01.645Z,11.88
2022-10-29T16:33:04.808Z,11.13
2022-10-29T16:38:07.671Z,12.45
2022-10-29T16:43:12.078Z,11.77
2022-10-29T16:48:14.926Z,12.25
2022-10-29T16:53:17.743Z,11.90
2022-10-29T16:58:22.110Z,12.07
2022-10-29T17:03:24.948Z,13.88
2022-10-29T17:08:32.159Z,13.50
2022-10-29T17:13:36.896Z,13.85
2022-10-29T17:18:39.693Z,13.57
2022-10-29T17:23:42.463Z,15.07
2022-10-29T17:28:46.840Z,17.50
2022-10-29T17:33:52.795Z,12.30
2022-10-29T17:38:55.578Z,13.40
2022-10-29T17:43:59.907Z,12.63
2022-10-29T17:49:02.799Z,13.70
2022-10-29T17:54:05.866Z,13.90
2022-10-29T17:59:10.048Z,18.50
2022-10-29T18:04:13.626Z,14.98
2022-10-29T18:09:21.428Z,16.13
2022-10-29T18:15:01.344Z,14.30
2022-10-29T18:20:12.425Z,14.98
2022-10-29T18:25:15.544Z,13.85
2022-10-29T18:30:23.064Z,14.77
2022-10-29T18:35:27.939Z,18.30
2022-10-29T18:40:31.133Z,16.25
2022-10-29T18:45:34.095Z,14.50
2022-10-29T18:50:40.801Z,15.48
2022-10-29T18:55:52.689Z,15.80
2022-10-29T19:00:55.924Z,15.40
2022-10-29T19:06:03.161Z,14.85
2022-10-29T19:11:13.513Z,17.88
2022-10-29T19:16:16.882Z,17.10
2022-10-29T19:21:21.108Z,16.23
2022-10-29T19:26:34.347Z,21.75
2022-10-29T19:31:37.536Z,17.88
2022-10-29T19:36:43.992Z,17.83
2022-10-29T19:41:46.939Z,16.30
2022-10-29T19:47:02.433Z,17.05
2022-10-29T19:52:16.622Z,17.25
2022-10-29T19:57:22.142Z,17.30
2022-10-29T20:03:29.491Z,19.75
2022-10-29T20:08:37.271Z,17.23
2022-10-29T20:13:41.133Z,18.45
2022-10-29T20:18:44.746Z,17.92
2022-10-29T20:23:50.442Z,17.52
2022-10-29T20:28:53.521Z,17.75
2022-10-29T20:33:57.835Z,16.98
2022-10-29T20:39:02.204Z,18.20
2022-10-29T20:44:05.272Z,16.70
2022-10-29T20:49:08.208Z,17.42
2022-10-29T20:54:12.417Z,17.77
2022-10-29T20:59:15.297Z,18.40
2022-10-29T21:04:18.410Z,17.67
2022-10-29T21:09:23.255Z,18.48
2022-10-29T21:14:27.429Z,19.48
2022-10-29T21:19:30.588Z,18.52
2022-10-29T21:24:35.654Z,18.40
2022-10-29T21:29:38.689Z,20.40
2022-10-29T21:34:41.758Z,20.13
2022-10-29T21:39:45.997Z,19.75
2022-10-29T21:44:48.934Z,19.80
2022-10-29T21:49:52.132Z,19.85
2022-10-29T21:54:56.351Z,20.15
2022-10-29T21:59:59.282Z,19.65
2022-10-29T22:05:02.117Z,18.48
2022-10-29T22:10:07.521Z,20.20
2022-10-29T22:15:10.754Z,19.73
2022-10-29T22:20:15.659Z,20.67
2022-10-29T22:25:21.272Z,20.20
2022-10-29T22:30:24.136Z,20.73
2022-10-29T22:35:27.079Z,19.90
2022-10-29T22:40:31.593Z,20.00
2022-10-29T22:45:34.386Z,20.63
2022-10-29T22:50:37.198Z,18.58
2022-10-29T22:55:41.351Z,21.27
2022-10-29T23:00:44.104Z,19.15
2022-10-29T23:05:57.315Z,19.50
2022-10-29T23:11:05.512Z,19.08
2022-10-29T23:16:08.884Z,19.17
2022-10-29T23:21:11.628Z,20.23
2022-10-29T23:26:15.992Z,18.27
2022-10-29T23:31:20.290Z,19.98
2022-10-29T23:36:25.174Z,19.27
2022-10-29T23:41:30.415Z,18.38
2022-10-29T23:46:33.242Z,19.08
2022-10-29T23:51:35.977Z,18.60
2022-10-29T23:56:40.077Z,18.02
